sensor_id;sensor_type;location;lat;lon;timestamp;temperature;humidity
1359;DHT22;673;48.098;14.422;2024-02-15T00:00:52;5.50;99.90
1359;DHT22;673;48.098;14.422;2024-02-15T00:03:19;5.60;99.90
1359;DHT22;673;48.098;14.422;2024-02-15T00:05:47;5.70;99.90
1359;DHT22;673;48.098;14.422;2024-02-15T00:08:14;5.80;99.90
1359;DHT22;673;48.098;14.422;2024-02-15T00:10:43;5.90;99.90
1359;DHT22;673;48.098;14.422;2024-02-15T00:13:12;5.90;99.90
1359;DHT22;673;48.098;14.422;2024-02-15T00:15:39;6.00;99.90
1359;DHT22;673;48.098;14.422;2024-02-15T00:18:06;6.00;99.90
1359;DHT22;673;48.098;14.422;2024-02-15T00:20:33;6.00;99.90
1359;DHT22;673;48.098;14.422;2024-02-15T00:23:00;6.10;99.90
1359;DHT22;673;48.098;14.422;2024-02-15T00:25:27;6.20;99.90
1359;DHT22;673;48.098;14.422;2024-02-15T00:27:57;6.20;99.90
1359;DHT22;673;48.098;14.422;2024-02-15T00:30:25;6.20;99.90
1359;DHT22;673;48.098;14.422;2024-02-15T00:32:53;6.20;99.90
1359;DHT22;673;48.098;14.422;2024-02-15T00:35:20;6.10;99.90
1359;DHT22;673;48.098;14.422;2024-02-15T00:37:47;6.00;99.90
1359;DHT22;673;48.098;14.422;2024-02-15T00:40:15;6.10;99.90
1359;DHT22;673;48.098;14.422;2024-02-15T00:42:42;6.10;99.90
1359;DHT22;673;48.098;14.422;2024-02-15T00:45:11;6.10;99.90
1359;DHT22;673;48.098;14.422;2024-02-15T00:47:39;6.10;99.90
1359;DHT22;673;48.098;14.422;2024-02-15T00:50:08;6.10;99.90
1359;DHT22;673;48.098;14.422;2024-02-15T00:52:35;6.20;99.90
1359;DHT22;673;48.098;14.422;2024-02-15T00:55:02;6.20;99.90
1359;DHT22;673;48.098;14.422;2024-02-15T00:57:29;6.20;99.90
1359;DHT22;673;48.098;14.422;2024-02-15T00:59:56;6.30;99.90
1359;DHT22;673;48.098;14.422;2024-02-15T01:02:25;6.20;99.90
1359;DHT22;673;48.098;14.422;2024-02-15T01:04:53;6.20;99.90
1359;DHT22;673;48.098;14.422;2024-02-15T01:07:22;6.10;99.90
1359;DHT22;673;48.098;14.422;2024-02-15T01:09:53;6.10;99.90
1359;DHT22;673;48.098;14.422;2024-02-15T01:12:21;6.10;99.90
1359;DHT22;673;48.098;14.422;2024-02-15T01:14:48;6.10;99.90
1359;DHT22;673;48.098;14.422;2024-02-15T01:17:15;6.10;99.90
1359;DHT22;673;48.098;14.422;2024-02-15T01:19:44;6.10;99.90
1359;DHT22;673;48.098;14.422;2024-02-15T01:22:11;6.10;99.90
1359;DHT22;673;48.098;14.422;2024-02-15T01:24:38;6.20;99.90
1359;DHT22;673;48.098;14.422;2024-02-15T01:27:05;6.20;99.90
1359;DHT22;673;48.098;14.422;2024-02-15T01:29:32;6.30;99.90
1359;DHT22;673;48.098;14.422;2024-02-15T01:32:00;6.30;99.90
1359;DHT22;673;48.098;14.422;2024-02-15T01:34:27;6.30;99.90
1359;DHT22;673;48.098;14.422;2024-02-15T01:36:55;6.40;99.90
1359;DHT22;673;48.098;14.422;2024-02-15T01:39:22;6.30;99.90
1359;DHT22;673;48.098;14.422;2024-02-15T01:41:49;6.30;99.90
1359;DHT22;673;48.098;14.422;2024-02-15T01:44:17;6.20;99.90
1359;DHT22;673;48.098;14.422;2024-02-15T01:46:46;6.20;99.90
1359;DHT22;673;48.098;14.422;2024-02-15T01:49:14;6.20;99.90
1359;DHT22;673;48.098;14.422;2024-02-15T01:51:42;6.20;99.90
1359;DHT22;673;48.098;14.422;2024-02-15T01:54:12;6.30;99.90
1359;DHT22;673;48.098;14.422;2024-02-15T01:56:41;6.30;99.90
1359;DHT22;673;48.098;14.422;2024-02-15T01:59:09;6.30;99.90
1359;DHT22;673;48.098;14.422;2024-02-15T02:01:36;6.30;99.90
1359;DHT22;673;48.098;14.422;2024-02-15T02:04:04;6.30;99.90
1359;DHT22;673;48.098;14.422;2024-02-15T02:06:31;6.20;99.90
1359;DHT22;673;48.098;14.422;2024-02-15T02:08:58;6.20;99.90
1359;DHT22;673;48.098;14.422;2024-02-15T02:11:26;6.30;99.90
1359;DHT22;673;48.098;14.422;2024-02-15T02:13:55;6.40;99.90
1359;DHT22;673;48.098;14.422;2024-02-15T02:16:25;6.30;99.90
1359;DHT22;673;48.098;14.422;2024-02-15T02:18:54;6.30;99.90
1359;DHT22;673;48.098;14.422;2024-02-15T02:21:21;6.30;99.90
1359;DHT22;673;48.098;14.422;2024-02-15T02:23:53;6.30;99.90
1359;DHT22;673;48.098;14.422;2024-02-15T02:26:22;6.30;99.90
1359;DHT22;673;48.098;14.422;2024-02-15T02:28:50;6.30;99.90
1359;DHT22;673;48.098;14.422;2024-02-15T02:31:18;6.20;99.90
1359;DHT22;673;48.098;14.422;2024-02-15T02:33:48;6.20;99.90
1359;DHT22;673;48.098;14.422;2024-02-15T02:36:17;6.20;99.90
1359;DHT22;673;48.098;14.422;2024-02-15T02:38:44;6.20;99.90
1359;DHT22;673;48.098;14.422;2024-02-15T02:41:15;6.20;99.90
1359;DHT22;673;48.098;14.422;2024-02-15T02:43:44;6.20;99.90
1359;DHT22;673;48.098;14.422;2024-02-15T02:46:11;6.20;99.90
1359;DHT22;673;48.098;14.422;2024-02-15T02:48:38;6.20;99.90
1359;DHT22;673;48.098;14.422;2024-02-15T02:51:07;6.20;99.90
1359;DHT22;673;48.098;14.422;2024-02-15T02:53:34;6.20;99.90
1359;DHT22;673;48.098;14.422;2024-02-15T02:56:01;6.30;99.90
1359;DHT22;673;48.098;14.422;2024-02-15T02:58:29;6.40;99.90
1359;DHT22;673;48.098;14.422;2024-02-15T03:00:58;6.50;99.90
1359;DHT22;673;48.098;14.422;2024-02-15T03:03:26;6.50;99.90
1359;DHT22;673;48.098;14.422;2024-02-15T03:05:53;6.60;99.90
1359;DHT22;673;48.098;14.422;2024-02-15T03:08:20;6.60;99.90
1359;DHT22;673;48.098;14.422;2024-02-15T03:10:48;6.70;99.90
1359;DHT22;673;48.098;14.422;2024-02-15T03:13:15;6.80;99.90
1359;DHT22;673;48.098;14.422;2024-02-15T03:15:44;6.70;99.90
1359;DHT22;673;48.098;14.422;2024-02-15T03:18:15;6.80;99.90
1359;DHT22;673;48.098;14.422;2024-02-15T03:20:42;6.80;99.90
1359;DHT22;673;48.098;14.422;2024-02-15T03:23:10;6.70;99.90
1359;DHT22;673;48.098;14.422;2024-02-15T03:25:36;6.70;99.90
1359;DHT22;673;48.098;14.422;2024-02-15T03:28:04;6.70;99.90
1359;DHT22;673;48.098;14.422;2024-02-15T03:30:32;6.70;99.90
1359;DHT22;673;48.098;14.422;2024-02-15T03:33:00;6.60;99.90
1359;DHT22;673;48.098;14.422;2024-02-15T03:35:30;6.60;99.90
1359;DHT22;673;48.098;14.422;2024-02-15T03:37:57;6.60;99.90
1359;DHT22;673;48.098;14.422;2024-02-15T03:40:25;6.50;99.90
1359;DHT22;673;48.098;14.422;2024-02-15T03:42:52;6.50;99.90
1359;DHT22;673;48.098;14.422;2024-02-15T03:45:19;6.50;99.90
1359;DHT22;673;48.098;14.422;2024-02-15T03:47:50;6.50;99.90
1359;DHT22;673;48.098;14.422;2024-02-15T03:50:18;6.50;99.90
1359;DHT22;673;48.098;14.422;2024-02-15T03:52:47;6.60;99.90
1359;DHT22;673;48.098;14.422;2024-02-15T03:55:14;6.50;99.90
1359;DHT22;673;48.098;14.422;2024-02-15T03:57:41;6.40;99.90
1359;DHT22;673;48.098;14.422;2024-02-15T04:00:09;6.50;99.90
1359;DHT22;673;48.098;14.422;2024-02-15T04:02:39;6.40;99.90
1359;DHT22;673;48.098;14.422;2024-02-15T04:05:07;6.40;99.90
1359;DHT22;673;48.098;14.422;2024-02-15T04:07:35;6.40;99.90
1359;DHT22;673;48.098;14.422;2024-02-15T04:10:06;6.30;99.90
1359;DHT22;673;48.098;14.422;2024-02-15T04:12:34;6.30;99.90
1359;DHT22;673;48.098;14.422;2024-02-15T04:15:01;6.20;99.90
1359;DHT22;673;48.098;14.422;2024-02-15T04:17:31;6.40;99.90
1359;DHT22;673;48.098;14.422;2024-02-15T04:20:00;6.40;99.90
1359;DHT22;673;48.098;14.422;2024-02-15T04:22:28;6.40;99.90
1359;DHT22;673;48.098;14.422;2024-02-15T04:24:57;6.50;99.90
1359;DHT22;673;48.098;14.422;2024-02-15T04:27:25;6.50;99.90
1359;DHT22;673;48.098;14.422;2024-02-15T04:29:52;6.40;99.90
1359;DHT22;673;48.098;14.422;2024-02-15T04:32:20;6.30;99.90
1359;DHT22;673;48.098;14.422;2024-02-15T04:34:47;6.30;99.90
1359;DHT22;673;48.098;14.422;2024-02-15T04:37:14;6.30;99.90
1359;DHT22;673;48.098;14.422;2024-02-15T04:39:42;6.40;99.90
1359;DHT22;673;48.098;14.422;2024-02-15T04:42:09;6.50;99.90
1359;DHT22;673;48.098;14.422;2024-02-15T04:44:39;6.50;99.90
1359;DHT22;673;48.098;14.422;2024-02-15T04:47:06;6.50;99.90
1359;DHT22;673;48.098;14.422;2024-02-15T04:49:34;6.60;99.90
1359;DHT22;673;48.098;14.422;2024-02-15T04:52:04;6.60;99.90
1359;DHT22;673;48.098;14.422;2024-02-15T04:54:32;6.40;99.90
1359;DHT22;673;48.098;14.422;2024-02-15T04:56:59;6.30;99.90
1359;DHT22;673;48.098;14.422;2024-02-15T04:59:26;6.20;99.90
1359;DHT22;673;48.098;14.422;2024-02-15T05:01:57;6.00;99.90
1359;DHT22;673;48.098;14.422;2024-02-15T05:04:24;6.00;99.90
1359;DHT22;673;48.098;14.422;2024-02-15T05:06:51;6.10;99.90
1359;DHT22;673;48.098;14.422;2024-02-15T05:09:19;6.10;99.90
1359;DHT22;673;48.098;14.422;2024-02-15T05:11:48;6.00;99.90
1359;DHT22;673;48.098;14.422;2024-02-15T05:14:15;5.90;99.90
1359;DHT22;673;48.098;14.422;2024-02-15T05:16:45;5.80;99.90
1359;DHT22;673;48.098;14.422;2024-02-15T05:19:15;5.70;99.90
1359;DHT22;673;48.098;14.422;2024-02-15T05:21:43;5.70;99.90
1359;DHT22;673;48.098;14.422;2024-02-15T05:24:12;5.60;99.90
1359;DHT22;673;48.098;14.422;2024-02-15T05:26:40;5.40;99.90
1359;DHT22;673;48.098;14.422;2024-02-15T05:29:08;5.40;99.90
1359;DHT22;673;48.098;14.422;2024-02-15T05:31:36;5.40;99.90
1359;DHT22;673;48.098;14.422;2024-02-15T05:34:06;5.40;99.90
1359;DHT22;673;48.098;14.422;2024-02-15T05:36:38;5.40;99.90
1359;DHT22;673;48.098;14.422;2024-02-15T05:39:05;5.40;99.90
1359;DHT22;673;48.098;14.422;2024-02-15T05:41:32;5.30;99.90
1359;DHT22;673;48.098;14.422;2024-02-15T05:43:59;5.30;99.90
1359;DHT22;673;48.098;14.422;2024-02-15T05:46:26;5.30;99.90
1359;DHT22;673;48.098;14.422;2024-02-15T05:48:54;5.30;99.90
1359;DHT22;673;48.098;14.422;2024-02-15T05:51:22;5.40;99.90
1359;DHT22;673;48.098;14.422;2024-02-15T05:53:50;5.40;99.90
1359;DHT22;673;48.098;14.422;2024-02-15T05:56:20;5.50;99.90
1359;DHT22;673;48.098;14.422;2024-02-15T05:58:47;5.60;99.90
1359;DHT22;673;48.098;14.422;2024-02-15T06:01:15;5.60;99.90
1359;DHT22;673;48.098;14.422;2024-02-15T06:03:42;5.60;99.90
1359;DHT22;673;48.098;14.422;2024-02-15T06:06:10;5.50;99.90
1359;DHT22;673;48.098;14.422;2024-02-15T06:08:38;5.50;99.90
1359;DHT22;673;48.098;14.422;2024-02-15T06:11:06;5.60;99.90
1359;DHT22;673;48.098;14.422;2024-02-15T06:13:35;5.50;99.90
1359;DHT22;673;48.098;14.422;2024-02-15T06:16:02;5.50;99.90
1359;DHT22;673;48.098;14.422;2024-02-15T06:18:34;5.50;99.90
1359;DHT22;673;48.098;14.422;2024-02-15T06:21:03;5.40;99.90
1359;DHT22;673;48.098;14.422;2024-02-15T06:23:31;5.40;99.90
1359;DHT22;673;48.098;14.422;2024-02-15T06:25:59;5.40;99.90
1359;DHT22;673;48.098;14.422;2024-02-15T06:28:28;5.40;99.90
1359;DHT22;673;48.098;14.422;2024-02-15T06:31:14;5.40;99.90
1359;DHT22;673;48.098;14.422;2024-02-15T06:33:59;5.60;99.90
1359;DHT22;673;48.098;14.422;2024-02-15T06:36:46;5.70;99.90
1359;DHT22;673;48.098;14.422;2024-02-15T06:39:30;5.70;99.90
1359;DHT22;673;48.098;14.422;2024-02-15T06:42:11;5.80;99.90
1359;DHT22;673;48.098;14.422;2024-02-15T06:44:42;5.80;99.90
1359;DHT22;673;48.098;14.422;2024-02-15T06:47:10;5.90;99.90
1359;DHT22;673;48.098;14.422;2024-02-15T06:49:38;5.90;99.90
1359;DHT22;673;48.098;14.422;2024-02-15T06:52:06;6.00;99.90
1359;DHT22;673;48.098;14.422;2024-02-15T06:54:34;5.90;99.90
1359;DHT22;673;48.098;14.422;2024-02-15T06:57:04;6.00;99.90
1359;DHT22;673;48.098;14.422;2024-02-15T06:59:31;6.00;99.90
1359;DHT22;673;48.098;14.422;2024-02-15T07:02:00;6.00;99.90
1359;DHT22;673;48.098;14.422;2024-02-15T07:04:27;6.00;99.90
1359;DHT22;673;48.098;14.422;2024-02-15T07:06:55;6.10;99.90
1359;DHT22;673;48.098;14.422;2024-02-15T07:09:22;6.20;99.90
1359;DHT22;673;48.098;14.422;2024-02-15T07:11:50;6.30;99.90
1359;DHT22;673;48.098;14.422;2024-02-15T07:14:17;6.20;99.90
1359;DHT22;673;48.098;14.422;2024-02-15T07:16:45;6.20;99.90
1359;DHT22;673;48.098;14.422;2024-02-15T07:19:13;6.20;99.90
1359;DHT22;673;48.098;14.422;2024-02-15T07:21:41;6.20;99.90
1359;DHT22;673;48.098;14.422;2024-02-15T07:24:08;6.10;99.90
1359;DHT22;673;48.098;14.422;2024-02-15T07:26:35;6.10;99.90
1359;DHT22;673;48.098;14.422;2024-02-15T07:29:03;6.30;99.90
1359;DHT22;673;48.098;14.422;2024-02-15T07:31:32;6.40;99.90
1359;DHT22;673;48.098;14.422;2024-02-15T07:33:59;6.50;99.90
1359;DHT22;673;48.098;14.422;2024-02-15T07:36:28;6.50;99.90
1359;DHT22;673;48.098;14.422;2024-02-15T07:38:55;6.60;99.90
1359;DHT22;673;48.098;14.422;2024-02-15T07:41:26;6.70;99.90
1359;DHT22;673;48.098;14.422;2024-02-15T07:43:54;6.80;99.90
1359;DHT22;673;48.098;14.422;2024-02-15T07:46:21;6.90;99.90
1359;DHT22;673;48.098;14.422;2024-02-15T07:48:49;7.00;99.90
1359;DHT22;673;48.098;14.422;2024-02-15T07:51:17;7.00;99.90
1359;DHT22;673;48.098;14.422;2024-02-15T07:53:47;6.90;99.90
1359;DHT22;673;48.098;14.422;2024-02-15T07:56:14;7.00;99.90
1359;DHT22;673;48.098;14.422;2024-02-15T07:58:42;7.10;99.90
1359;DHT22;673;48.098;14.422;2024-02-15T08:01:12;7.30;99.90
1359;DHT22;673;48.098;14.422;2024-02-15T08:03:39;7.60;99.90
1359;DHT22;673;48.098;14.422;2024-02-15T08:06:10;7.80;99.90
1359;DHT22;673;48.098;14.422;2024-02-15T08:08:38;7.90;99.90
1359;DHT22;673;48.098;14.422;2024-02-15T08:11:08;8.00;99.90
1359;DHT22;673;48.098;14.422;2024-02-15T08:13:41;8.00;99.90
1359;DHT22;673;48.098;14.422;2024-02-15T08:16:07;8.10;99.90
1359;DHT22;673;48.098;14.422;2024-02-15T08:18:34;7.90;99.90
1359;DHT22;673;48.098;14.422;2024-02-15T08:21:02;8.00;99.90
1359;DHT22;673;48.098;14.422;2024-02-15T08:23:29;8.00;99.90
1359;DHT22;673;48.098;14.422;2024-02-15T08:25:57;8.00;99.90
1359;DHT22;673;48.098;14.422;2024-02-15T08:28:26;8.20;99.90
1359;DHT22;673;48.098;14.422;2024-02-15T08:30:54;8.20;99.90
1359;DHT22;673;48.098;14.422;2024-02-15T08:33:22;8.30;99.90
1359;DHT22;673;48.098;14.422;2024-02-15T08:35:50;8.30;99.90
1359;DHT22;673;48.098;14.422;2024-02-15T08:38:20;8.30;99.90
1359;DHT22;673;48.098;14.422;2024-02-15T08:40:47;8.30;99.90
1359;DHT22;673;48.098;14.422;2024-02-15T08:43:15;8.20;99.90
1359;DHT22;673;48.098;14.422;2024-02-15T08:45:43;8.10;99.90
1359;DHT22;673;48.098;14.422;2024-02-15T08:48:11;8.00;99.90
1359;DHT22;673;48.098;14.422;2024-02-15T08:50:38;8.10;99.90
1359;DHT22;673;48.098;14.422;2024-02-15T08:53:07;8.00;99.90
1359;DHT22;673;48.098;14.422;2024-02-15T08:55:34;8.00;99.90
1359;DHT22;673;48.098;14.422;2024-02-15T08:58:02;8.20;99.90
1359;DHT22;673;48.098;14.422;2024-02-15T09:00:30;8.00;99.90
1359;DHT22;673;48.098;14.422;2024-02-15T09:02:58;8.10;99.90
1359;DHT22;673;48.098;14.422;2024-02-15T09:05:25;8.10;99.90
1359;DHT22;673;48.098;14.422;2024-02-15T09:07:53;8.10;99.90
1359;DHT22;673;48.098;14.422;2024-02-15T09:10:20;8.00;99.90
1359;DHT22;673;48.098;14.422;2024-02-15T09:12:49;8.00;99.90
1359;DHT22;673;48.098;14.422;2024-02-15T09:15:16;8.10;99.90
1359;DHT22;673;48.098;14.422;2024-02-15T09:17:44;8.20;99.90
1359;DHT22;673;48.098;14.422;2024-02-15T09:20:13;8.50;99.90
1359;DHT22;673;48.098;14.422;2024-02-15T09:22:41;8.80;99.90
1359;DHT22;673;48.098;14.422;2024-02-15T09:25:09;8.90;99.90
1359;DHT22;673;48.098;14.422;2024-02-15T09:27:38;9.00;99.90
1359;DHT22;673;48.098;14.422;2024-02-15T09:30:06;9.10;99.90
1359;DHT22;673;48.098;14.422;2024-02-15T09:32:34;9.40;99.90
1359;DHT22;673;48.098;14.422;2024-02-15T09:35:02;9.60;99.90
1359;DHT22;673;48.098;14.422;2024-02-15T09:37:30;9.50;99.90
1359;DHT22;673;48.098;14.422;2024-02-15T09:39:58;9.60;99.90
1359;DHT22;673;48.098;14.422;2024-02-15T09:42:30;9.60;99.90
1359;DHT22;673;48.098;14.422;2024-02-15T09:44:59;9.70;99.90
1359;DHT22;673;48.098;14.422;2024-02-15T09:47:33;9.70;99.90
1359;DHT22;673;48.098;14.422;2024-02-15T09:50:01;9.70;99.90
1359;DHT22;673;48.098;14.422;2024-02-15T09:52:31;10.20;99.90
1359;DHT22;673;48.098;14.422;2024-02-15T09:55:02;10.30;99.90
1359;DHT22;673;48.098;14.422;2024-02-15T09:57:30;10.40;99.90
1359;DHT22;673;48.098;14.422;2024-02-15T09:59:58;10.50;99.90
1359;DHT22;673;48.098;14.422;2024-02-15T10:02:26;10.40;99.90
1359;DHT22;673;48.098;14.422;2024-02-15T10:04:53;10.30;99.90
1359;DHT22;673;48.098;14.422;2024-02-15T10:07:25;10.30;99.90
1359;DHT22;673;48.098;14.422;2024-02-15T10:09:54;10.50;99.90
1359;DHT22;673;48.098;14.422;2024-02-15T10:12:21;10.70;99.90
1359;DHT22;673;48.098;14.422;2024-02-15T10:14:50;10.80;99.90
1359;DHT22;673;48.098;14.422;2024-02-15T10:17:19;10.80;99.90
1359;DHT22;673;48.098;14.422;2024-02-15T10:20:02;11.10;99.90
1359;DHT22;673;48.098;14.422;2024-02-15T10:22:30;11.30;99.90
1359;DHT22;673;48.098;14.422;2024-02-15T10:25:12;11.30;99.90
1359;DHT22;673;48.098;14.422;2024-02-15T10:27:39;11.60;99.90
1359;DHT22;673;48.098;14.422;2024-02-15T10:30:17;11.60;99.90
1359;DHT22;673;48.098;14.422;2024-02-15T10:32:45;11.80;99.90
1359;DHT22;673;48.098;14.422;2024-02-15T10:35:19;11.80;99.90
1359;DHT22;673;48.098;14.422;2024-02-15T10:37:48;11.80;99.90
1359;DHT22;673;48.098;14.422;2024-02-15T10:40:19;11.70;99.90
1359;DHT22;673;48.098;14.422;2024-02-15T10:42:47;11.30;99.90
1359;DHT22;673;48.098;14.422;2024-02-15T10:45:15;11.20;99.90
1359;DHT22;673;48.098;14.422;2024-02-15T10:47:44;11.40;99.90
1359;DHT22;673;48.098;14.422;2024-02-15T10:50:13;11.60;99.90
1359;DHT22;673;48.098;14.422;2024-02-15T10:52:48;11.90;99.90
1359;DHT22;673;48.098;14.422;2024-02-15T10:55:26;11.90;99.90
1359;DHT22;673;48.098;14.422;2024-02-15T10:57:58;11.80;99.90
1359;DHT22;673;48.098;14.422;2024-02-15T11:00:30;11.70;99.90
1359;DHT22;673;48.098;14.422;2024-02-15T11:03:01;12.00;99.90
1359;DHT22;673;48.098;14.422;2024-02-15T11:05:32;12.20;99.90
1359;DHT22;673;48.098;14.422;2024-02-15T11:08:02;12.20;99.90
1359;DHT22;673;48.098;14.422;2024-02-15T11:10:32;12.00;99.90
1359;DHT22;673;48.098;14.422;2024-02-15T11:13:00;12.10;99.90
1359;DHT22;673;48.098;14.422;2024-02-15T11:15:49;12.10;99.90
1359;DHT22;673;48.098;14.422;2024-02-15T11:21:54;12.10;99.90
1359;DHT22;673;48.098;14.422;2024-02-15T11:24:26;12.20;99.90
1359;DHT22;673;48.098;14.422;2024-02-15T11:26:58;12.30;99.90
1359;DHT22;673;48.098;14.422;2024-02-15T11:29:50;12.40;99.90
1359;DHT22;673;48.098;14.422;2024-02-15T11:32:40;12.40;99.90
1359;DHT22;673;48.098;14.422;2024-02-15T11:35:09;12.70;99.90
1359;DHT22;673;48.098;14.422;2024-02-15T11:37:50;12.70;99.90
1359;DHT22;673;48.098;14.422;2024-02-15T11:40:21;12.50;99.90
1359;DHT22;673;48.098;14.422;2024-02-15T11:42:55;12.40;99.90
1359;DHT22;673;48.098;14.422;2024-02-15T11:45:23;12.50;99.90
1359;DHT22;673;48.098;14.422;2024-02-15T11:47:52;12.30;99.90
1359;DHT22;673;48.098;14.422;2024-02-15T11:50:22;12.30;99.90
1359;DHT22;673;48.098;14.422;2024-02-15T11:52:50;12.50;99.90
1359;DHT22;673;48.098;14.422;2024-02-15T11:55:18;12.30;99.90
1359;DHT22;673;48.098;14.422;2024-02-15T11:57:57;12.20;99.90
1359;DHT22;673;48.098;14.422;2024-02-15T12:00:31;12.30;99.90
1359;DHT22;673;48.098;14.422;2024-02-15T12:03:16;12.30;99.90
1359;DHT22;673;48.098;14.422;2024-02-15T12:06:01;12.30;99.90
1359;DHT22;673;48.098;14.422;2024-02-15T12:08:45;12.50;99.90
1359;DHT22;673;48.098;14.422;2024-02-15T12:11:30;12.80;99.90
1359;DHT22;673;48.098;14.422;2024-02-15T12:14:16;12.90;99.90
1359;DHT22;673;48.098;14.422;2024-02-15T12:17:02;12.70;99.90
1359;DHT22;673;48.098;14.422;2024-02-15T12:19:48;12.80;99.90
1359;DHT22;673;48.098;14.422;2024-02-15T12:22:20;12.90;99.90
1359;DHT22;673;48.098;14.422;2024-02-15T12:24:58;12.90;99.90
1359;DHT22;673;48.098;14.422;2024-02-15T12:27:25;13.00;99.90
1359;DHT22;673;48.098;14.422;2024-02-15T12:29:57;13.10;99.90
1359;DHT22;673;48.098;14.422;2024-02-15T12:32:25;13.30;99.90
1359;DHT22;673;48.098;14.422;2024-02-15T12:34:52;13.40;99.90
1359;DHT22;673;48.098;14.422;2024-02-15T12:37:20;13.50;99.90
1359;DHT22;673;48.098;14.422;2024-02-15T12:39:48;13.50;99.90
1359;DHT22;673;48.098;14.422;2024-02-15T12:42:15;13.50;99.90
1359;DHT22;673;48.098;14.422;2024-02-15T12:44:45;13.70;99.90
1359;DHT22;673;48.098;14.422;2024-02-15T12:47:21;13.80;99.90
1359;DHT22;673;48.098;14.422;2024-02-15T12:49:49;13.80;99.90
1359;DHT22;673;48.098;14.422;2024-02-15T12:52:34;13.50;99.90
1359;DHT22;673;48.098;14.422;2024-02-15T12:55:11;13.70;99.90
1359;DHT22;673;48.098;14.422;2024-02-15T12:57:39;13.60;99.90
1359;DHT22;673;48.098;14.422;2024-02-15T13:00:11;13.50;99.90
1359;DHT22;673;48.098;14.422;2024-02-15T13:02:45;13.40;99.90
1359;DHT22;673;48.098;14.422;2024-02-15T13:05:12;13.60;99.90
1359;DHT22;673;48.098;14.422;2024-02-15T13:07:39;13.50;99.90
1359;DHT22;673;48.098;14.422;2024-02-15T13:10:07;13.50;99.90
1359;DHT22;673;48.098;14.422;2024-02-15T13:12:35;13.50;99.90
1359;DHT22;673;48.098;14.422;2024-02-15T13:15:04;13.40;99.90
1359;DHT22;673;48.098;14.422;2024-02-15T13:17:37;13.50;99.90
1359;DHT22;673;48.098;14.422;2024-02-15T13:20:07;13.50;99.90
1359;DHT22;673;48.098;14.422;2024-02-15T13:22:37;13.60;99.90
1359;DHT22;673;48.098;14.422;2024-02-15T13:25:06;13.70;99.90
1359;DHT22;673;48.098;14.422;2024-02-15T13:27:34;13.50;99.90
1359;DHT22;673;48.098;14.422;2024-02-15T13:30:02;13.60;99.90
1359;DHT22;673;48.098;14.422;2024-02-15T13:32:29;13.80;99.90
1359;DHT22;673;48.098;14.422;2024-02-15T13:34:56;13.80;99.90
1359;DHT22;673;48.098;14.422;2024-02-15T13:37:28;13.60;99.90
1359;DHT22;673;48.098;14.422;2024-02-15T13:39:55;13.50;99.90
1359;DHT22;673;48.098;14.422;2024-02-15T13:42:22;13.60;99.90
1359;DHT22;673;48.098;14.422;2024-02-15T13:44:49;13.60;99.90
1359;DHT22;673;48.098;14.422;2024-02-15T13:47:16;13.60;99.90
1359;DHT22;673;48.098;14.422;2024-02-15T13:49:43;13.60;99.90
1359;DHT22;673;48.098;14.422;2024-02-15T13:52:10;13.50;99.90
1359;DHT22;673;48.098;14.422;2024-02-15T13:54:38;13.50;99.90
1359;DHT22;673;48.098;14.422;2024-02-15T13:57:05;13.50;99.90
1359;DHT22;673;48.098;14.422;2024-02-15T13:59:35;13.60;99.90
1359;DHT22;673;48.098;14.422;2024-02-15T14:02:02;13.40;99.90
1359;DHT22;673;48.098;14.422;2024-02-15T14:04:30;13.40;99.90
1359;DHT22;673;48.098;14.422;2024-02-15T14:06:58;13.50;99.90
1359;DHT22;673;48.098;14.422;2024-02-15T14:09:25;13.60;99.90
1359;DHT22;673;48.098;14.422;2024-02-15T14:11:54;13.70;99.90
1359;DHT22;673;48.098;14.422;2024-02-15T14:14:21;13.70;99.90
1359;DHT22;673;48.098;14.422;2024-02-15T14:16:49;13.70;99.90
1359;DHT22;673;48.098;14.422;2024-02-15T14:19:18;13.80;99.70
1359;DHT22;673;48.098;14.422;2024-02-15T14:21:47;13.60;99.80
1359;DHT22;673;48.098;14.422;2024-02-15T14:24:14;13.80;99.00
1359;DHT22;673;48.098;14.422;2024-02-15T14:26:41;13.70;98.90
1359;DHT22;673;48.098;14.422;2024-02-15T14:29:09;13.60;99.90
1359;DHT22;673;48.098;14.422;2024-02-15T14:31:38;13.70;99.90
1359;DHT22;673;48.098;14.422;2024-02-15T14:34:22;13.80;99.70
1359;DHT22;673;48.098;14.422;2024-02-15T14:36:51;13.90;99.80
1359;DHT22;673;48.098;14.422;2024-02-15T14:39:18;13.90;99.90
1359;DHT22;673;48.098;14.422;2024-02-15T14:41:45;14.00;98.90
1359;DHT22;673;48.098;14.422;2024-02-15T14:44:13;14.10;99.10
1359;DHT22;673;48.098;14.422;2024-02-15T14:46:40;14.00;98.90
1359;DHT22;673;48.098;14.422;2024-02-15T14:49:07;13.90;99.20
1359;DHT22;673;48.098;14.422;2024-02-15T14:51:34;13.80;99.20
1359;DHT22;673;48.098;14.422;2024-02-15T14:54:04;13.70;99.70
1359;DHT22;673;48.098;14.422;2024-02-15T14:56:31;13.70;99.80
1359;DHT22;673;48.098;14.422;2024-02-15T14:58:59;13.70;99.90
1359;DHT22;673;48.098;14.422;2024-02-15T15:01:27;13.70;99.40
1359;DHT22;673;48.098;14.422;2024-02-15T15:03:56;13.60;99.60
1359;DHT22;673;48.098;14.422;2024-02-15T15:06:24;13.40;99.90
1359;DHT22;673;48.098;14.422;2024-02-15T15:09:09;13.30;99.90
1359;DHT22;673;48.098;14.422;2024-02-15T15:11:54;13.30;99.90
1359;DHT22;673;48.098;14.422;2024-02-15T15:14:39;13.30;99.90
1359;DHT22;673;48.098;14.422;2024-02-15T15:17:08;13.20;99.90
1359;DHT22;673;48.098;14.422;2024-02-15T15:19:38;13.10;99.90
1359;DHT22;673;48.098;14.422;2024-02-15T15:22:07;12.90;99.90
1359;DHT22;673;48.098;14.422;2024-02-15T15:24:34;12.90;99.90
1359;DHT22;673;48.098;14.422;2024-02-15T15:27:02;12.80;99.90
1359;DHT22;673;48.098;14.422;2024-02-15T15:29:30;12.70;99.90
1359;DHT22;673;48.098;14.422;2024-02-15T15:31:57;12.60;99.90
1359;DHT22;673;48.098;14.422;2024-02-15T15:34:26;12.60;99.90
1359;DHT22;673;48.098;14.422;2024-02-15T15:36:52;12.70;99.90
1359;DHT22;673;48.098;14.422;2024-02-15T15:39:20;12.60;99.90
1359;DHT22;673;48.098;14.422;2024-02-15T15:41:50;12.50;99.90
1359;DHT22;673;48.098;14.422;2024-02-15T15:44:19;12.30;99.90
1359;DHT22;673;48.098;14.422;2024-02-15T15:46:49;12.30;99.90
1359;DHT22;673;48.098;14.422;2024-02-15T15:49:17;12.20;99.90
1359;DHT22;673;48.098;14.422;2024-02-15T15:51:45;12.10;99.90
1359;DHT22;673;48.098;14.422;2024-02-15T15:54:15;12.10;99.90
1359;DHT22;673;48.098;14.422;2024-02-15T15:56:45;12.10;99.90
1359;DHT22;673;48.098;14.422;2024-02-15T15:59:12;12.00;99.90
1359;DHT22;673;48.098;14.422;2024-02-15T16:01:46;11.90;99.90
1359;DHT22;673;48.098;14.422;2024-02-15T16:04:14;12.00;99.90
1359;DHT22;673;48.098;14.422;2024-02-15T16:06:41;11.90;99.90
1359;DHT22;673;48.098;14.422;2024-02-15T16:09:10;11.80;99.90
1359;DHT22;673;48.098;14.422;2024-02-15T16:11:37;11.60;99.90
1359;DHT22;673;48.098;14.422;2024-02-15T16:14:09;11.40;99.90
1359;DHT22;673;48.098;14.422;2024-02-15T16:16:37;11.30;99.90
1359;DHT22;673;48.098;14.422;2024-02-15T16:19:05;11.20;99.90
1359;DHT22;673;48.098;14.422;2024-02-15T16:21:32;11.10;99.90
1359;DHT22;673;48.098;14.422;2024-02-15T16:23:58;11.00;99.90
1359;DHT22;673;48.098;14.422;2024-02-15T16:26:27;10.90;99.90
1359;DHT22;673;48.098;14.422;2024-02-15T16:28:54;10.90;99.90